Time;durP1;ratioP1;P1;durP2;ratioP2;P2;SDS_P1;SDS_P2;PMS_P1;PMS_P2;Temp;Humidity;BMP_temperature;BMP_pressure;BME280_temperature;BME280_humidity;BME280_pressure;Samples;Min_cycle;Max_cycle;Signal;HPM_P1;HPM_P2
2022/02/14 00:00:15;;;;;;;14.40;6.45;;;;;;;;;;5043301;28;20037;-58
2022/02/14 00:02:42;;;;;;;13.35;4.40;;;;;;;;;;5043545;28;20053;-59
2022/02/14 00:05:08;;;;;;;12.55;4.90;;;;;;;;;;5042062;28;20033;-58
2022/02/14 00:07:34;;;;;;;8.45;4.35;;;;;;;;;;5035669;28;20049;-58
2022/02/14 00:10:00;;;;;;;13.27;5.10;;;;;;;;;;5037236;28;20037;-58
2022/02/14 00:12:27;;;;;;;10.43;4.45;;;;;;;;;;5032541;28;20172;-58
2022/02/14 00:14:53;;;;;;;10.95;5.18;;;;;;;;;;5037710;28;20133;-58
2022/02/14 00:17:20;;;;;;;13.27;5.10;;;;;;;;;;5039704;28;20081;-58
2022/02/14 00:19:50;;;;;;;14.10;4.68;;;;;;;;;;5036274;28;20127;-58
2022/02/14 00:22:21;;;;;;;16.67;5.10;;;;;;;;;;5040689;28;20045;-58
2022/02/14 00:24:49;;;;;;;13.40;4.93;;;;;;;;;;5040543;28;20434;-58
2022/02/14 00:27:15;;;;;;;13.18;4.50;;;;;;;;;;5047406;28;20060;-59
2022/02/14 00:29:41;;;;;;;11.50;4.88;;;;;;;;;;5042004;28;20112;-58
2022/02/14 00:32:08;;;;;;;14.77;5.63;;;;;;;;;;5044470;28;20420;-58
2022/02/14 00:34:34;;;;;;;12.32;5.35;;;;;;;;;;5048891;28;20084;-58
2022/02/14 00:37:00;;;;;;;12.90;5.40;;;;;;;;;;5045804;28;20082;-58
2022/02/14 00:39:26;;;;;;;11.57;4.65;;;;;;;;;;5044514;28;20037;-58
2022/02/14 00:41:52;;;;;;;11.00;4.47;;;;;;;;;;5043996;28;20523;-58
2022/02/14 00:44:18;;;;;;;10.82;5.20;;;;;;;;;;5047008;28;20033;-58
2022/02/14 00:46:45;;;;;;;15.23;5.00;;;;;;;;;;5044932;28;20095;-58
2022/02/14 00:49:11;;;;;;;11.80;5.15;;;;;;;;;;5046788;28;20060;-58
2022/02/14 00:51:37;;;;;;;10.88;4.95;;;;;;;;;;5046004;28;20603;-58
2022/02/14 00:54:03;;;;;;;12.40;5.38;;;;;;;;;;5044214;28;20068;-58
2022/02/14 00:56:29;;;;;;;11.45;4.78;;;;;;;;;;5040388;28;20575;-58
2022/02/14 00:58:56;;;;;;;11.85;5.15;;;;;;;;;;5043744;28;20509;-58
2022/02/14 01:01:22;;;;;;;15.02;5.38;;;;;;;;;;5041156;28;20041;-58
2022/02/14 01:03:48;;;;;;;13.68;5.00;;;;;;;;;;5044346;28;20079;-58
2022/02/14 01:06:14;;;;;;;12.65;4.85;;;;;;;;;;5074663;28;20575;-58
2022/02/14 01:08:40;;;;;;;10.23;4.85;;;;;;;;;;5039897;28;20132;-58
2022/02/14 01:11:07;;;;;;;15.13;4.72;;;;;;;;;;5042257;28;20448;-58
2022/02/14 01:13:33;;;;;;;11.35;4.80;;;;;;;;;;5041858;28;20539;-58
2022/02/14 01:15:59;;;;;;;10.93;4.43;;;;;;;;;;5042563;28;20499;-59
2022/02/14 01:18:25;;;;;;;12.50;4.53;;;;;;;;;;5038241;28;20048;-58
2022/02/14 01:20:51;;;;;;;15.63;4.80;;;;;;;;;;5045720;28;20038;-58
2022/02/14 01:23:17;;;;;;;11.55;4.88;;;;;;;;;;5042291;28;20041;-58
2022/02/14 01:25:43;;;;;;;14.65;5.72;;;;;;;;;;5041586;28;20045;-58
2022/02/14 01:28:09;;;;;;;12.18;4.88;;;;;;;;;;5031458;28;20055;-58
2022/02/14 01:30:36;;;;;;;12.68;5.30;;;;;;;;;;5039739;28;20113;-58
2022/02/14 01:33:02;;;;;;;8.85;4.28;;;;;;;;;;5046883;28;20053;-58
2022/02/14 01:35:28;;;;;;;10.50;5.03;;;;;;;;;;5039324;28;20044;-58
2022/02/14 01:37:54;;;;;;;13.98;4.70;;;;;;;;;;5036908;28;20060;-58
2022/02/14 01:40:21;;;;;;;14.98;5.07;;;;;;;;;;5044277;28;20041;-59
2022/02/14 01:42:47;;;;;;;10.60;4.32;;;;;;;;;;5042946;28;20095;-58
2022/02/14 01:45:14;;;;;;;13.52;4.43;;;;;;;;;;5042343;28;20041;-58
2022/02/14 01:47:40;;;;;;;9.68;4.78;;;;;;;;;;5041797;28;20495;-58
2022/02/14 01:50:07;;;;;;;12.18;4.78;;;;;;;;;;5036675;28;20049;-59
2022/02/14 01:52:35;;;;;;;14.88;5.13;;;;;;;;;;5038045;28;20042;-58
2022/02/14 01:55:02;;;;;;;11.45;4.75;;;;;;;;;;5044106;28;20547;-58
2022/02/14 01:57:28;;;;;;;12.93;5.25;;;;;;;;;;5041372;28;20434;-58
2022/02/14 01:59:58;;;;;;;8.90;4.13;;;;;;;;;;5044889;28;20075;-58
2022/02/14 02:02:24;;;;;;;11.27;4.47;;;;;;;;;;5045391;28;20127;-58
2022/02/14 02:04:51;;;;;;;14.90;4.95;;;;;;;;;;5040033;28;20397;-59
2022/02/14 02:07:17;;;;;;;12.70;5.07;;;;;;;;;;5042614;28;20405;-58
2022/02/14 02:09:44;;;;;;;9.57;3.85;;;;;;;;;;5039437;28;20033;-59
2022/02/14 02:12:26;;;;;;;17.95;4.40;;;;;;;;;;5036681;28;20132;-58
2022/02/14 02:14:54;;;;;;;15.25;5.32;;;;;;;;;;5047501;28;20167;-58
2022/02/14 02:17:22;;;;;;;12.25;4.50;;;;;;;;;;5042149;28;20048;-58
2022/02/14 02:19:48;;;;;;;11.50;4.70;;;;;;;;;;5043477;28;20053;-58
2022/02/14 02:22:15;;;;;;;6.68;4.20;;;;;;;;;;5047862;28;20098;-58
2022/02/14 02:24:49;;;;;;;12.85;4.40;;;;;;;;;;5037468;28;20119;-58
2022/02/14 02:27:16;;;;;;;13.05;4.88;;;;;;;;;;5036855;28;20079;-58
2022/02/14 02:29:42;;;;;;;10.98;4.45;;;;;;;;;;5034412;28;20045;-58
2022/02/14 02:32:09;;;;;;;13.27;4.38;;;;;;;;;;5033767;28;20178;-58
2022/02/14 02:34:38;;;;;;;12.45;4.35;;;;;;;;;;5036566;28;20044;-58
2022/02/14 02:37:05;;;;;;;10.00;4.20;;;;;;;;;;5044361;28;20709;-58
2022/02/14 02:39:31;;;;;;;14.10;4.78;;;;;;;;;;5049296;28;20048;-58
2022/02/14 02:41:58;;;;;;;10.40;4.07;;;;;;;;;;5051489;28;20044;-58
2022/02/14 02:44:25;;;;;;;10.70;4.55;;;;;;;;;;5038468;28;20045;-58
2022/02/14 02:46:51;;;;;;;8.82;4.38;;;;;;;;;;5040268;28;20152;-58
2022/02/14 02:49:19;;;;;;;11.30;4.32;;;;;;;;;;5040780;28;20037;-58
2022/02/14 02:51:48;;;;;;;12.25;4.95;;;;;;;;;;5042440;28;20061;-58
2022/02/14 02:54:14;;;;;;;8.60;4.10;;;;;;;;;;5036092;28;20512;-58
2022/02/14 02:56:41;;;;;;;13.07;4.75;;;;;;;;;;5037159;28;20504;-58
2022/02/14 02:59:08;;;;;;;11.98;4.43;;;;;;;;;;5036648;28;20831;-58
2022/02/14 03:01:35;;;;;;;9.52;4.50;;;;;;;;;;5040640;28;20034;-58
2022/02/14 03:04:02;;;;;;;11.45;4.72;;;;;;;;;;5041120;28;20044;-58
2022/02/14 03:06:28;;;;;;;14.20;4.65;;;;;;;;;;5036575;28;20033;-58
2022/02/14 03:08:54;;;;;;;10.95;4.18;;;;;;;;;;5039790;28;20037;-58
2022/02/14 03:11:21;;;;;;;14.35;5.00;;;;;;;;;;5041067;28;20543;-58
2022/02/14 03:13:47;;;;;;;12.75;4.53;;;;;;;;;;5042429;28;20140;-58
2022/02/14 03:16:13;;;;;;;11.23;4.00;;;;;;;;;;5041049;28;20083;-58
2022/02/14 03:18:39;;;;;;;8.82;4.00;;;;;;;;;;5039357;28;20545;-58
2022/02/14 03:21:06;;;;;;;12.77;5.25;;;;;;;;;;5042831;28;20037;-58
2022/02/14 03:23:32;;;;;;;10.93;4.55;;;;;;;;;;5041400;28;20056;-58
2022/02/14 03:25:59;;;;;;;9.00;4.57;;;;;;;;;;5042550;28;20136;-58
2022/02/14 03:28:25;;;;;;;14.52;4.95;;;;;;;;;;5046947;28;20041;-58
2022/02/14 03:30:51;;;;;;;13.02;4.25;;;;;;;;;;5045783;28;20076;-58
2022/02/14 03:33:17;;;;;;;11.02;5.07;;;;;;;;;;5051004;28;20044;-58
2022/02/14 03:35:44;;;;;;;14.13;4.05;;;;;;;;;;5046355;28;20049;-58
2022/02/14 03:38:10;;;;;;;11.20;3.70;;;;;;;;;;5044346;28;20059;-58
2022/02/14 03:40:37;;;;;;;9.10;3.78;;;;;;;;;;5039748;28;20038;-58
2022/02/14 03:43:04;;;;;;;7.30;3.42;;;;;;;;;;5039781;28;20112;-58
2022/02/14 03:45:31;;;;;;;12.10;4.05;;;;;;;;;;5045843;28;20411;-58
2022/02/14 03:47:58;;;;;;;8.15;3.47;;;;;;;;;;5075422;28;20094;-58
2022/02/14 03:50:24;;;;;;;11.85;4.25;;;;;;;;;;5044184;28;20041;-58
2022/02/14 03:52:50;;;;;;;9.40;3.60;;;;;;;;;;5072250;28;20512;-58
2022/02/14 03:55:17;;;;;;;13.57;4.72;;;;;;;;;;5036613;28;20081;-58
2022/02/14 03:57:43;;;;;;;12.18;4.00;;;;;;;;;;5039511;28;20177;-58
2022/02/14 04:00:11;;;;;;;7.15;3.42;;;;;;;;;;5038057;28;20107;-58
2022/02/14 04:02:38;;;;;;;10.25;4.07;;;;;;;;;;5043523;28;20048;-58
2022/02/14 04:05:04;;;;;;;10.73;3.78;;;;;;;;;;5047869;28;20033;-58
2022/02/14 04:07:30;;;;;;;9.45;3.63;;;;;;;;;;5045531;28;20180;-58
2022/02/14 04:09:57;;;;;;;13.25;3.95;;;;;;;;;;5043784;28;20052;-58
2022/02/14 04:12:23;;;;;;;10.63;3.88;;;;;;;;;;5040861;28;20471;-58
2022/02/14 04:14:50;;;;;;;8.52;3.33;;;;;;;;;;5041574;28;20037;-58
2022/02/14 04:17:16;;;;;;;9.65;3.83;;;;;;;;;;5048184;28;20055;-58
2022/02/14 04:19:42;;;;;;;13.00;3.97;;;;;;;;;;5044047;28;20449;-58
2022/02/14 04:22:08;;;;;;;9.63;4.05;;;;;;;;;;5048215;28;20037;-58
2022/02/14 04:24:34;;;;;;;12.35;3.28;;;;;;;;;;5037459;28;20049;-58
2022/02/14 04:27:01;;;;;;;9.98;3.13;;;;;;;;;;5031653;28;20068;-58
2022/02/14 04:29:27;;;;;;;9.50;4.05;;;;;;;;;;5047652;28;20122;-58
2022/02/14 04:31:53;;;;;;;13.98;3.55;;;;;;;;;;5044024;28;20424;-58
2022/02/14 04:34:19;;;;;;;7.53;3.38;;;;;;;;;;5045792;28;20037;-58
2022/02/14 04:36:46;;;;;;;14.23;3.63;;;;;;;;;;5047248;28;20045;-58
2022/02/14 04:39:13;;;;;;;7.25;3.67;;;;;;;;;;5037804;28;20213;-59
2022/02/14 04:41:39;;;;;;;12.85;3.65;;;;;;;;;;5043408;28;20037;-58
2022/02/14 04:44:05;;;;;;;8.65;3.15;;;;;;;;;;5042332;28;20132;-58
2022/02/14 04:46:32;;;;;;;11.77;3.80;;;;;;;;;;5037632;28;20042;-58
2022/02/14 04:48:58;;;;;;;10.35;3.75;;;;;;;;;;5045184;28;20159;-58
2022/02/14 04:51:25;;;;;;;7.28;2.75;;;;;;;;;;5043712;28;20041;-58
2022/02/14 04:53:52;;;;;;;9.45;3.70;;;;;;;;;;5041596;28;20046;-60
2022/02/14 04:56:19;;;;;;;9.65;3.97;;;;;;;;;;5044639;28;20120;-58
2022/02/14 04:58:45;;;;;;;9.88;3.80;;;;;;;;;;5042560;28;20052;-58
2022/02/14 05:01:11;;;;;;;6.55;2.97;;;;;;;;;;5040054;28;20400;-58
2022/02/14 05:03:38;;;;;;;14.02;3.80;;;;;;;;;;5038298;28;20041;-58
2022/02/14 05:06:04;;;;;;;12.18;3.72;;;;;;;;;;5044451;28;20038;-58
2022/02/14 05:08:32;;;;;;;9.40;3.38;;;;;;;;;;5043086;28;20528;-57
2022/02/14 05:10:58;;;;;;;9.07;3.35;;;;;;;;;;5041025;28;20041;-58
2022/02/14 05:13:24;;;;;;;15.75;2.97;;;;;;;;;;5036599;28;20046;-58
2022/02/14 05:15:50;;;;;;;10.90;3.15;;;;;;;;;;5041642;28;20038;-58
2022/02/14 05:18:16;;;;;;;9.85;3.08;;;;;;;;;;5036454;28;20046;-58
2022/02/14 05:20:43;;;;;;;7.75;3.05;;;;;;;;;;5038830;28;20049;-58
2022/02/14 05:23:10;;;;;;;7.00;3.00;;;;;;;;;;5042144;28;20080;-58
2022/02/14 05:25:36;;;;;;;11.57;4.88;;;;;;;;;;5072108;28;20091;-58
2022/02/14 05:28:09;;;;;;;6.57;2.90;;;;;;;;;;5039880;28;20334;-58
2022/02/14 05:30:35;;;;;;;10.57;3.38;;;;;;;;;;5041271;28;20044;-58
2022/02/14 05:33:02;;;;;;;12.10;3.30;;;;;;;;;;5043003;28;20036;-58
2022/02/14 05:35:28;;;;;;;7.57;2.50;;;;;;;;;;5045212;28;20076;-58
2022/02/14 05:37:55;;;;;;;11.45;3.17;;;;;;;;;;5050454;28;20182;-58
2022/02/14 05:40:21;;;;;;;8.75;3.35;;;;;;;;;;5039388;28;20049;-58
2022/02/14 05:42:47;;;;;;;9.68;3.17;;;;;;;;;;5035576;28;20143;-58
2022/02/14 05:45:13;;;;;;;8.10;2.75;;;;;;;;;;5042217;28;20072;-58
2022/02/14 05:47:40;;;;;;;7.18;3.10;;;;;;;;;;5036245;28;20144;-58
2022/02/14 05:50:06;;;;;;;6.97;3.05;;;;;;;;;;5043252;28;20045;-58
2022/02/14 05:52:32;;;;;;;7.65;2.80;;;;;;;;;;5038746;28;20045;-58
2022/02/14 05:54:58;;;;;;;9.57;3.45;;;;;;;;;;5036253;28;20049;-58
2022/02/14 05:57:24;;;;;;;7.43;3.17;;;;;;;;;;5037607;28;20103;-58
2022/02/14 05:59:51;;;;;;;11.02;3.05;;;;;;;;;;5044133;28;20385;-58
2022/02/14 06:02:17;;;;;;;7.50;3.17;;;;;;;;;;5044663;28;20041;-58
2022/02/14 06:04:43;;;;;;;8.20;3.58;;;;;;;;;;5045907;28;20049;-58
2022/02/14 06:07:09;;;;;;;9.20;3.20;;;;;;;;;;5045761;28;20041;-58
2022/02/14 06:09:35;;;;;;;8.68;3.13;;;;;;;;;;5040228;28;20041;-58
2022/02/14 06:12:02;;;;;;;11.00;2.97;;;;;;;;;;5044433;28;20057;-58
2022/02/14 06:14:30;;;;;;;8.85;2.90;;;;;;;;;;5040242;28;20500;-58
2022/02/14 06:16:56;;;;;;;6.95;3.33;;;;;;;;;;5071519;28;20226;-58
2022/02/14 06:19:22;;;;;;;8.70;3.65;;;;;;;;;;5046213;28;20499;-58
2022/02/14 06:21:48;;;;;;;6.80;2.28;;;;;;;;;;5047583;28;20049;-58
2022/02/14 06:24:15;;;;;;;6.82;3.20;;;;;;;;;;5047983;28;20037;-58
2022/02/14 06:26:41;;;;;;;9.85;2.70;;;;;;;;;;5038721;28;20038;-58
2022/02/14 06:29:08;;;;;;;10.07;3.58;;;;;;;;;;5070963;28;20034;-58
2022/02/14 06:31:34;;;;;;;11.23;2.92;;;;;;;;;;5038551;28;20049;-59
2022/02/14 06:34:01;;;;;;;8.77;3.03;;;;;;;;;;5039933;28;20496;-57
2022/02/14 06:36:27;;;;;;;11.38;3.40;;;;;;;;;;5042748;28;20095;-58
2022/02/14 06:38:54;;;;;;;6.57;2.60;;;;;;;;;;5041860;28;20049;-58
2022/02/14 06:41:20;;;;;;;9.30;3.03;;;;;;;;;;5036511;28;20037;-58
2022/02/14 06:43:46;;;;;;;8.40;2.85;;;;;;;;;;5034900;28;20052;-58
2022/02/14 06:46:13;;;;;;;9.75;3.15;;;;;;;;;;5042324;28;20634;-58
2022/02/14 06:48:39;;;;;;;7.45;2.42;;;;;;;;;;5035255;28;20396;-59
2022/02/14 06:51:05;;;;;;;9.73;2.95;;;;;;;;;;5035139;28;20442;-59
2022/02/14 06:53:31;;;;;;;6.57;2.42;;;;;;;;;;5031835;28;20555;-59
2022/02/14 06:56:00;;;;;;;9.35;2.70;;;;;;;;;;5034822;28;20120;-59
2022/02/14 06:58:26;;;;;;;9.07;2.65;;;;;;;;;;5031503;28;20630;-59
2022/02/14 07:00:53;;;;;;;9.77;2.70;;;;;;;;;;5035852;28;20045;-59
2022/02/14 07:03:19;;;;;;;10.65;3.45;;;;;;;;;;5035621;28;20452;-59
2022/02/14 07:05:45;;;;;;;6.65;2.75;;;;;;;;;;5036455;28;20110;-59
2022/02/14 07:08:11;;;;;;;9.30;3.22;;;;;;;;;;5036753;28;20053;-60
2022/02/14 07:10:37;;;;;;;7.00;2.60;;;;;;;;;;5037360;28;20137;-59
2022/02/14 07:13:04;;;;;;;5.53;2.75;;;;;;;;;;5030930;28;20038;-59
2022/02/14 07:15:30;;;;;;;8.65;2.78;;;;;;;;;;5030389;28;20052;-59
2022/02/14 07:17:56;;;;;;;8.05;2.35;;;;;;;;;;5041308;28;20140;-59
2022/02/14 07:20:22;;;;;;;9.30;2.85;;;;;;;;;;5043796;28;20091;-59
2022/02/14 07:22:49;;;;;;;6.93;2.90;;;;;;;;;;5044926;28;20051;-59
2022/02/14 07:25:15;;;;;;;7.45;2.40;;;;;;;;;;5044362;28;20094;-59
2022/02/14 07:27:41;;;;;;;9.52;2.55;;;;;;;;;;5057435;28;20151;-59
2022/02/14 07:30:09;;;;;;;9.50;1.73;;;;;;;;;;5044931;28;20060;-59
2022/02/14 07:32:36;;;;;;;8.82;3.00;;;;;;;;;;5041826;28;20053;-59
2022/02/14 07:35:02;;;;;;;10.88;3.17;;;;;;;;;;5043618;28;20037;-59
2022/02/14 07:37:28;;;;;;;9.80;2.92;;;;;;;;;;5075836;28;20049;-59
2022/02/14 07:39:54;;;;;;;6.70;2.40;;;;;;;;;;5044342;28;20437;-58
2022/02/14 07:42:21;;;;;;;11.85;2.50;;;;;;;;;;5043851;28;20108;-58
2022/02/14 07:44:47;;;;;;;7.65;2.90;;;;;;;;;;5042381;28;20073;-59
2022/02/14 07:47:14;;;;;;;10.43;3.00;;;;;;;;;;5040459;28;20057;-59
2022/02/14 07:49:40;;;;;;;9.40;3.28;;;;;;;;;;5041833;28;20124;-60
2022/02/14 07:52:07;;;;;;;9.63;3.00;;;;;;;;;;5040805;28;20120;-60
2022/02/14 07:54:33;;;;;;;9.02;3.75;;;;;;;;;;5042071;28;20061;-59
2022/02/14 07:56:59;;;;;;;13.38;3.92;;;;;;;;;;5042812;28;20045;-59
2022/02/14 07:59:25;;;;;;;8.85;4.22;;;;;;;;;;5039787;28;20142;-58
2022/02/14 08:01:52;;;;;;;9.13;5.63;;;;;;;;;;5043528;28;20084;-58
2022/02/14 08:04:19;;;;;;;12.82;6.47;;;;;;;;;;5043538;28;20046;-59
2022/02/14 08:06:46;;;;;;;13.65;5.78;;;;;;;;;;5036338;28;20045;-59
2022/02/14 08:09:12;;;;;;;16.10;6.45;;;;;;;;;;5036243;28;20092;-59
2022/02/14 08:11:38;;;;;;;12.10;5.38;;;;;;;;;;5051969;28;20063;-59
2022/02/14 08:14:04;;;;;;;11.93;6.05;;;;;;;;;;5045258;28;20136;-58
2022/02/14 08:16:33;;;;;;;9.57;6.45;;;;;;;;;;5081969;28;20171;-58
2022/02/14 08:18:59;;;;;;;13.02;7.20;;;;;;;;;;5038276;28;20523;-59
2022/02/14 08:21:26;;;;;;;16.05;7.13;;;;;;;;;;5036516;28;20041;-59
2022/02/14 08:23:52;;;;;;;11.35;7.40;;;;;;;;;;5039648;28;20088;-59
2022/02/14 08:26:18;;;;;;;13.32;7.90;;;;;;;;;;5047196;28;20795;-58
2022/02/14 08:28:45;;;;;;;14.07;7.38;;;;;;;;;;5043066;28;20041;-58
2022/02/14 08:31:11;;;;;;;13.65;6.70;;;;;;;;;;5048869;28;20037;-59
2022/02/14 08:33:38;;;;;;;10.20;5.75;;;;;;;;;;5042488;28;20099;-59
2022/02/14 08:36:05;;;;;;;13.88;6.45;;;;;;;;;;5036905;28;20466;-59
2022/02/14 08:38:32;;;;;;;10.02;4.53;;;;;;;;;;5036500;28;20060;-59
2022/02/14 08:40:59;;;;;;;9.13;4.43;;;;;;;;;;5034191;28;20463;-59
2022/02/14 08:43:25;;;;;;;11.75;3.50;;;;;;;;;;5035467;28;20048;-59
2022/02/14 08:45:51;;;;;;;10.55;3.30;;;;;;;;;;5033206;28;20350;-59
2022/02/14 08:48:18;;;;;;;11.25;2.80;;;;;;;;;;5034472;28;20060;-59
2022/02/14 08:50:44;;;;;;;9.10;2.40;;;;;;;;;;5033129;28;20041;-59
2022/02/14 08:53:11;;;;;;;8.35;1.88;;;;;;;;;;5037873;28;20054;-59
2022/02/14 08:55:37;;;;;;;9.05;2.35;;;;;;;;;;5038728;28;20055;-59
2022/02/14 08:58:04;;;;;;;16.50;2.53;;;;;;;;;;5036761;28;20477;-58
2022/02/14 09:00:30;;;;;;;19.35;2.42;;;;;;;;;;5037483;28;20120;-58
2022/02/14 09:02:57;;;;;;;8.05;1.75;;;;;;;;;;5033208;28;20046;-58
2022/02/14 09:05:24;;;;;;;13.40;2.53;;;;;;;;;;5035335;28;20519;-58
2022/02/14 09:07:50;;;;;;;9.73;2.00;;;;;;;;;;5033012;28;20113;-59
2022/02/14 09:10:17;;;;;;;9.80;1.65;;;;;;;;;;5033209;28;20083;-59
2022/02/14 09:12:43;;;;;;;9.27;2.08;;;;;;;;;;5031612;28;20049;-58
2022/02/14 09:15:10;;;;;;;12.23;2.03;;;;;;;;;;5033051;28;20049;-58
2022/02/14 09:17:36;;;;;;;10.02;1.65;;;;;;;;;;5035389;28;20047;-59
2022/02/14 09:20:03;;;;;;;16.73;2.55;;;;;;;;;;5034085;28;20053;-59
2022/02/14 09:22:30;;;;;;;11.98;1.88;;;;;;;;;;5033144;28;20056;-59
2022/02/14 09:24:57;;;;;;;10.57;2.47;;;;;;;;;;5032710;28;20041;-59
2022/02/14 09:27:23;;;;;;;11.93;1.65;;;;;;;;;;5031979;28;20076;-58
2022/02/14 09:29:49;;;;;;;11.85;2.05;;;;;;;;;;5033078;28;20076;-59
2022/02/14 09:32:16;;;;;;;11.27;2.17;;;;;;;;;;5036620;28;20033;-59
2022/02/14 09:34:43;;;;;;;14.15;2.22;;;;;;;;;;5032364;28;20045;-59
2022/02/14 09:37:10;;;;;;;13.88;2.20;;;;;;;;;;5032517;28;20434;-59
2022/02/14 09:39:36;;;;;;;12.85;2.13;;;;;;;;;;5032397;28;20076;-59
2022/02/14 09:42:04;;;;;;;14.63;2.35;;;;;;;;;;5036076;28;20481;-59
2022/02/14 09:44:31;;;;;;;12.93;2.15;;;;;;;;;;5032152;28;20140;-59
2022/02/14 09:46:57;;;;;;;13.73;2.35;;;;;;;;;;5032607;28;20053;-58
2022/02/14 09:49:24;;;;;;;11.05;2.42;;;;;;;;;;5033462;28;20045;-59
2022/02/14 09:51:53;;;;;;;9.90;2.13;;;;;;;;;;5032367;28;20042;-59
2022/02/14 09:54:19;;;;;;;12.77;2.30;;;;;;;;;;5031715;28;20057;-59
2022/02/14 09:56:45;;;;;;;12.90;2.55;;;;;;;;;;5033321;28;20508;-59
2022/02/14 09:59:12;;;;;;;10.18;2.30;;;;;;;;;;5031430;28;20041;-59
2022/02/14 10:01:39;;;;;;;11.15;2.20;;;;;;;;;;5040371;28;20084;-59
2022/02/14 10:04:05;;;;;;;9.20;2.08;;;;;;;;;;5051001;28;20037;-59
2022/02/14 10:06:33;;;;;;;13.23;2.28;;;;;;;;;;5044594;28;20057;-59
2022/02/14 10:09:06;;;;;;;17.98;2.92;;;;;;;;;;5078848;28;20049;-59
2022/02/14 10:11:34;;;;;;;16.60;2.67;;;;;;;;;;5034526;28;20045;-59
2022/02/14 10:14:13;;;;;;;12.43;2.78;;;;;;;;;;5031881;28;20081;-59
2022/02/14 10:16:39;;;;;;;13.30;2.60;;;;;;;;;;5031523;28;20049;-59
2022/02/14 10:19:15;;;;;;;16.70;2.80;;;;;;;;;;5031663;28;20053;-59
2022/02/14 10:21:45;;;;;;;9.13;1.77;;;;;;;;;;5035497;28;20048;-59
2022/02/14 10:24:13;;;;;;;14.57;2.38;;;;;;;;;;5031074;28;20052;-59
2022/02/14 10:26:42;;;;;;;13.05;2.08;;;;;;;;;;5031593;28;20400;-59
2022/02/14 10:29:11;;;;;;;10.18;2.10;;;;;;;;;;5031033;28;20386;-59
2022/02/14 10:31:45;;;;;;;7.68;1.83;;;;;;;;;;5032189;28;20401;-59
2022/02/14 10:34:12;;;;;;;6.82;1.92;;;;;;;;;;5036190;28;20047;-59
2022/02/14 10:36:40;;;;;;;9.35;1.75;;;;;;;;;;5049948;28;20119;-59
2022/02/14 10:39:08;;;;;;;8.32;2.53;;;;;;;;;;5050693;28;20448;-59
2022/02/14 10:41:34;;;;;;;13.45;2.00;;;;;;;;;;5049797;28;20044;-59
2022/02/14 10:44:06;;;;;;;14.98;2.42;;;;;;;;;;5050040;28;20477;-60
2022/02/14 10:46:32;;;;;;;9.48;2.45;;;;;;;;;;5051012;28;20052;-59
2022/02/14 10:49:00;;;;;;;10.52;2.20;;;;;;;;;;5041123;28;20120;-59
2022/02/14 10:51:26;;;;;;;10.43;1.63;;;;;;;;;;5033481;28;20073;-59
2022/02/14 10:53:54;;;;;;;7.20;1.98;;;;;;;;;;5050326;28;20147;-61
2022/02/14 10:56:22;;;;;;;6.95;1.58;;;;;;;;;;5048997;28;20117;-59
2022/02/14 10:58:49;;;;;;;11.10;2.03;;;;;;;;;;5036410;28;20226;-58
2022/02/14 11:01:16;;;;;;;10.80;3.55;;;;;;;;;;5038671;28;20032;-59
2022/02/14 11:03:43;;;;;;;8.45;2.22;;;;;;;;;;5036339;28;20408;-59
2022/02/14 11:06:11;;;;;;;9.18;2.08;;;;;;;;;;5042411;28;20033;-59
2022/02/14 11:08:38;;;;;;;11.68;3.22;;;;;;;;;;5041890;28;20049;-59
2022/02/14 11:11:05;;;;;;;8.88;1.90;;;;;;;;;;5041952;28;20083;-59
2022/02/14 11:13:31;;;;;;;6.90;1.83;;;;;;;;;;5041544;28;20106;-59
2022/02/14 11:16:00;;;;;;;10.30;2.22;;;;;;;;;;5042299;28;20057;-59
2022/02/14 11:18:31;;;;;;;9.90;1.90;;;;;;;;;;5043244;28;20045;-59
2022/02/14 11:20:59;;;;;;;9.52;2.10;;;;;;;;;;5075358;28;20124;-59
2022/02/14 11:23:27;;;;;;;11.88;2.30;;;;;;;;;;5043766;28;20068;-59
2022/02/14 11:26:01;;;;;;;12.93;2.67;;;;;;;;;;5040324;28;20116;-59
2022/02/14 11:28:33;;;;;;;11.48;2.40;;;;;;;;;;5043528;28;20055;-59
2022/02/14 11:31:11;;;;;;;14.40;2.10;;;;;;;;;;5041963;28;20191;-59
2022/02/14 11:33:41;;;;;;;7.03;1.52;;;;;;;;;;5041449;28;20037;-59
2022/02/14 11:36:09;;;;;;;10.98;1.42;;;;;;;;;;5042786;28;20186;-58
2022/02/14 11:38:42;;;;;;;11.60;1.98;;;;;;;;;;5043615;28;20056;-59
2022/02/14 11:41:37;;;;;;;10.82;1.63;;;;;;;;;;5042166;28;20041;-59
2022/02/14 11:44:13;;;;;;;10.85;2.35;;;;;;;;;;5046219;28;20037;-58
2022/02/14 11:46:42;;;;;;;10.57;2.20;;;;;;;;;;5047054;28;20045;-59
2022/02/14 11:49:09;;;;;;;11.68;1.92;;;;;;;;;;5046808;28;20064;-60
2022/02/14 11:51:43;;;;;;;9.73;1.70;;;;;;;;;;5045672;28;20052;-60
2022/02/14 11:54:28;;;;;;;7.53;1.50;;;;;;;;;;5045567;28;20404;-59
2022/02/14 11:56:55;;;;;;;11.13;2.10;;;;;;;;;;5044664;28;20107;-59
2022/02/14 11:59:29;;;;;;;12.90;2.53;;;;;;;;;;5038587;28;20060;-59
2022/02/14 12:01:59;;;;;;;9.63;1.77;;;;;;;;;;5042224;28;20033;-59
2022/02/14 12:04:36;;;;;;;9.48;2.05;;;;;;;;;;5039833;28;20041;-59
2022/02/14 12:07:16;;;;;;;11.63;2.15;;;;;;;;;;5075988;28;20058;-59
2022/02/14 12:09:59;;;;;;;10.05;2.00;;;;;;;;;;5040439;28;20080;-60
2022/02/14 12:20:34;;;;;;;9.52;1.80;;;;;;;;;;5037409;28;20046;-59
2022/02/14 12:21:02;;;;;;;12.13;2.35;;;;;;;;;;5045998;28;20037;-59
2022/02/14 12:23:29;;;;;;;9.55;2.00;;;;;;;;;;5039363;28;20092;-59
2022/02/14 12:25:55;;;;;;;8.10;2.00;;;;;;;;;;5041304;28;20040;-60
2022/02/14 12:28:23;;;;;;;9.48;1.85;;;;;;;;;;5037277;28;20160;-59
2022/02/14 12:30:49;;;;;;;6.13;1.52;;;;;;;;;;5042571;28;20048;-59
2022/02/14 12:33:16;;;;;;;13.13;2.47;;;;;;;;;;5036916;28;20111;-59
2022/02/14 12:35:43;;;;;;;9.05;1.73;;;;;;;;;;5033454;28;20481;-59
2022/02/14 12:38:10;;;;;;;9.70;1.60;;;;;;;;;;5038182;28;20057;-59
2022/02/14 12:40:49;;;;;;;9.30;1.75;;;;;;;;;;5043345;28;20057;-59
2022/02/14 12:43:25;;;;;;;7.93;1.55;;;;;;;;;;5040370;28;20592;-59
2022/02/14 12:45:51;;;;;;;11.85;1.83;;;;;;;;;;5041290;28;20041;-59
2022/02/14 12:48:35;;;;;;;12.02;1.73;;;;;;;;;;5040222;28;20055;-59
2022/02/14 12:51:05;;;;;;;10.40;1.65;;;;;;;;;;5046082;28;20075;-59
2022/02/14 12:53:32;;;;;;;9.40;1.77;;;;;;;;;;5043622;28;20045;-59
2022/02/14 12:56:13;;;;;;;8.98;1.92;;;;;;;;;;5046038;28;20037;-59
2022/02/14 12:58:47;;;;;;;8.88;1.85;;;;;;;;;;5070188;28;20056;-59
2022/02/14 13:01:13;;;;;;;7.22;1.33;;;;;;;;;;5039943;28;20052;-59
2022/02/14 13:03:39;;;;;;;8.95;1.67;;;;;;;;;;5037259;28;20155;-59
2022/02/14 13:06:05;;;;;;;12.23;2.10;;;;;;;;;;5032985;28;20096;-59
2022/02/14 13:08:32;;;;;;;12.07;1.73;;;;;;;;;;5033537;28;20377;-60
2022/02/14 13:11:00;;;;;;;16.77;3.08;;;;;;;;;;5045198;28;20486;-59
2022/02/14 13:13:38;;;;;;;9.95;1.60;;;;;;;;;;5039810;28;20094;-59
2022/02/14 13:16:06;;;;;;;10.48;1.85;;;;;;;;;;5035863;28;20051;-59
2022/02/14 13:18:39;;;;;;;12.02;1.77;;;;;;;;;;5034508;28;20052;-59
2022/02/14 13:21:05;;;;;;;6.97;1.20;;;;;;;;;;5040986;28;20473;-60
2022/02/14 13:23:31;;;;;;;6.35;1.90;;;;;;;;;;5043502;28;20069;-59
2022/02/14 13:25:57;;;;;;;11.27;1.20;;;;;;;;;;5040246;28;20110;-59
2022/02/14 13:28:23;;;;;;;8.00;1.52;;;;;;;;;;5044806;28;20040;-59
2022/02/14 13:30:52;;;;;;;13.52;1.90;;;;;;;;;;5041972;28;20140;-59
2022/02/14 13:33:24;;;;;;;3.63;1.10;;;;;;;;;;5040774;28;20053;-59
2022/02/14 13:35:50;;;;;;;5.65;1.10;;;;;;;;;;5046091;28;20073;-59
2022/02/14 13:38:16;;;;;;;7.25;1.30;;;;;;;;;;5076171;28;20124;-59
2022/02/14 13:40:44;;;;;;;7.00;1.40;;;;;;;;;;5049362;28;20202;-59
2022/02/14 13:43:19;;;;;;;10.30;1.60;;;;;;;;;;5043325;28;20154;-59
2022/02/14 13:45:46;;;;;;;12.60;1.63;;;;;;;;;;5045844;28;20047;-59
2022/02/14 13:48:15;;;;;;;11.27;1.70;;;;;;;;;;5070230;28;20100;-59
2022/02/14 13:50:41;;;;;;;7.75;1.50;;;;;;;;;;5038578;28;20077;-59
2022/02/14 13:53:08;;;;;;;8.40;1.63;;;;;;;;;;5033659;28;20194;-59
2022/02/14 13:55:34;;;;;;;7.60;1.20;;;;;;;;;;5031734;28;20045;-59
2022/02/14 13:58:01;;;;;;;6.82;1.58;;;;;;;;;;5033232;28;20095;-59
2022/02/14 14:00:31;;;;;;;10.82;1.88;;;;;;;;;;5033519;28;20044;-59
2022/02/14 14:02:58;;;;;;;8.52;1.70;;;;;;;;;;5049403;28;20160;-59
2022/02/14 14:05:25;;;;;;;8.10;1.40;;;;;;;;;;5066936;28;20060;-60
2022/02/14 14:07:52;;;;;;;7.55;1.80;;;;;;;;;;5043211;28;20053;-59
2022/02/14 14:10:18;;;;;;;9.40;1.80;;;;;;;;;;5032278;28;20121;-60
2022/02/14 14:12:45;;;;;;;5.28;1.30;;;;;;;;;;5032477;28;20060;-59
2022/02/14 14:15:11;;;;;;;8.50;1.60;;;;;;;;;;5036751;28;20056;-59
2022/02/14 14:17:37;;;;;;;7.28;0.95;;;;;;;;;;5035993;28;20045;-59
2022/02/14 14:20:04;;;;;;;19.15;4.03;;;;;;;;;;5038442;28;20339;-59
2022/02/14 14:22:33;;;;;;;13.00;1.73;;;;;;;;;;5047400;28;20083;-60
2022/02/14 14:25:00;;;;;;;6.30;1.35;;;;;;;;;;5066963;28;20076;-59
2022/02/14 14:27:27;;;;;;;8.90;1.38;;;;;;;;;;5046445;28;20044;-60
2022/02/14 14:29:53;;;;;;;9.38;1.65;;;;;;;;;;5043617;28;20186;-70
2022/02/14 14:32:19;;;;;;;10.35;2.13;;;;;;;;;;5033754;28;20041;-60
2022/02/14 14:34:45;;;;;;;12.40;1.67;;;;;;;;;;5038568;28;20045;-59
2022/02/14 14:37:12;;;;;;;11.80;1.52;;;;;;;;;;5042596;28;20049;-60
2022/02/14 14:39:38;;;;;;;11.30;2.08;;;;;;;;;;5037906;28;20443;-60
2022/02/14 14:42:05;;;;;;;10.05;1.85;;;;;;;;;;5038231;28;20029;-59